sensor_id;sensor_type;location;lat;lon;timestamp;temperature;humidity
17740;DHT22;8990;33.226;-97.150;2022-08-03T00:02:13;38.20;90.20
17740;DHT22;8990;33.226;-97.150;2022-08-03T00:04:45;38.10;88.20
17740;DHT22;8990;33.226;-97.150;2022-08-03T00:07:14;38.10;89.10
17740;DHT22;8990;33.226;-97.150;2022-08-03T00:09:43;38.00;89.40
17740;DHT22;8990;33.226;-97.150;2022-08-03T00:12:13;37.90;88.90
17740;DHT22;8990;33.226;-97.150;2022-08-03T00:14:42;38.00;89.00
17740;DHT22;8990;33.226;-97.150;2022-08-03T00:17:11;38.00;89.00
17740;DHT22;8990;33.226;-97.150;2022-08-03T00:19:41;38.00;88.90
17740;DHT22;8990;33.226;-97.150;2022-08-03T00:22:12;37.90;88.60
17740;DHT22;8990;33.226;-97.150;2022-08-03T00:24:41;37.80;88.80
17740;DHT22;8990;33.226;-97.150;2022-08-03T00:27:11;37.70;88.90
17740;DHT22;8990;33.226;-97.150;2022-08-03T00:29:40;37.60;89.20
17740;DHT22;8990;33.226;-97.150;2022-08-03T00:32:09;37.60;89.10
17740;DHT22;8990;33.226;-97.150;2022-08-03T00:34:38;37.50;90.00
17740;DHT22;8990;33.226;-97.150;2022-08-03T00:37:07;37.60;89.40
17740;DHT22;8990;33.226;-97.150;2022-08-03T00:39:38;37.50;89.40
17740;DHT22;8990;33.226;-97.150;2022-08-03T00:42:09;37.50;89.60
17740;DHT22;8990;33.226;-97.150;2022-08-03T00:44:39;37.50;89.50
17740;DHT22;8990;33.226;-97.150;2022-08-03T00:47:09;37.50;89.60
17740;DHT22;8990;33.226;-97.150;2022-08-03T00:49:39;37.30;89.90
17740;DHT22;8990;33.226;-97.150;2022-08-03T00:52:09;37.30;89.80
17740;DHT22;8990;33.226;-97.150;2022-08-03T00:54:39;37.30;89.90
17740;DHT22;8990;33.226;-97.150;2022-08-03T00:57:09;37.10;90.10
17740;DHT22;8990;33.226;-97.150;2022-08-03T00:59:38;37.10;90.10
17740;DHT22;8990;33.226;-97.150;2022-08-03T01:02:07;37.10;90.10
17740;DHT22;8990;33.226;-97.150;2022-08-03T01:04:36;37.10;90.10
17740;DHT22;8990;33.226;-97.150;2022-08-03T01:07:11;37.00;90.20
17740;DHT22;8990;33.226;-97.150;2022-08-03T01:09:54;37.00;90.30
17740;DHT22;8990;33.226;-97.150;2022-08-03T01:12:31;36.90;90.40
17740;DHT22;8990;33.226;-97.150;2022-08-03T01:15:09;36.80;90.40
17740;DHT22;8990;33.226;-97.150;2022-08-03T01:17:45;36.60;90.70
17740;DHT22;8990;33.226;-97.150;2022-08-03T01:20:17;36.70;90.80
17740;DHT22;8990;33.226;-97.150;2022-08-03T01:26:12;36.50;91.00
17740;DHT22;8990;33.226;-97.150;2022-08-03T01:28:56;36.40;91.10
17740;DHT22;8990;33.226;-97.150;2022-08-03T01:31:31;36.30;91.20
17740;DHT22;8990;33.226;-97.150;2022-08-03T01:34:05;36.20;91.30
17740;DHT22;8990;33.226;-97.150;2022-08-03T01:36:38;36.20;91.40
17740;DHT22;8990;33.226;-97.150;2022-08-03T01:39:09;36.20;91.50
17740;DHT22;8990;33.226;-97.150;2022-08-03T01:41:45;36.20;91.50
17740;DHT22;8990;33.226;-97.150;2022-08-03T01:44:16;36.20;91.60
17740;DHT22;8990;33.226;-97.150;2022-08-03T01:46:48;36.10;91.60
17740;DHT22;8990;33.226;-97.150;2022-08-03T01:49:18;36.10;91.70
17740;DHT22;8990;33.226;-97.150;2022-08-03T01:51:47;36.00;91.80
17740;DHT22;8990;33.226;-97.150;2022-08-03T01:54:18;36.00;91.80
17740;DHT22;8990;33.226;-97.150;2022-08-03T01:56:48;35.90;92.00
17740;DHT22;8990;33.226;-97.150;2022-08-03T01:59:21;35.90;92.00
17740;DHT22;8990;33.226;-97.150;2022-08-03T02:01:53;35.90;91.90
17740;DHT22;8990;33.226;-97.150;2022-08-03T02:04:23;35.90;92.00
17740;DHT22;8990;33.226;-97.150;2022-08-03T02:06:54;35.80;92.00
17740;DHT22;8990;33.226;-97.150;2022-08-03T02:09:25;35.80;92.00
17740;DHT22;8990;33.226;-97.150;2022-08-03T02:11:55;35.80;92.10
17740;DHT22;8990;33.226;-97.150;2022-08-03T02:14:26;35.80;92.10
17740;DHT22;8990;33.226;-97.150;2022-08-03T02:16:58;35.80;92.20
17740;DHT22;8990;33.226;-97.150;2022-08-03T02:19:28;35.70;92.20
17740;DHT22;8990;33.226;-97.150;2022-08-03T02:21:58;35.70;92.20
17740;DHT22;8990;33.226;-97.150;2022-08-03T02:24:28;35.60;92.30
17740;DHT22;8990;33.226;-97.150;2022-08-03T02:26:59;35.60;92.30
17740;DHT22;8990;33.226;-97.150;2022-08-03T02:29:31;35.60;92.30
17740;DHT22;8990;33.226;-97.150;2022-08-03T02:32:03;35.50;92.40
17740;DHT22;8990;33.226;-97.150;2022-08-03T02:34:35;35.50;92.50
17740;DHT22;8990;33.226;-97.150;2022-08-03T02:37:06;35.40;92.40
17740;DHT22;8990;33.226;-97.150;2022-08-03T02:39:37;35.40;92.50
17740;DHT22;8990;33.226;-97.150;2022-08-03T02:42:11;35.40;92.50
17740;DHT22;8990;33.226;-97.150;2022-08-03T02:44:43;35.40;92.50
17740;DHT22;8990;33.226;-97.150;2022-08-03T02:47:18;35.40;92.40
17740;DHT22;8990;33.226;-97.150;2022-08-03T02:49:49;35.30;92.40
17740;DHT22;8990;33.226;-97.150;2022-08-03T02:52:22;35.30;92.40
17740;DHT22;8990;33.226;-97.150;2022-08-03T02:54:55;35.20;92.50
17740;DHT22;8990;33.226;-97.150;2022-08-03T02:57:27;35.10;92.50
17740;DHT22;8990;33.226;-97.150;2022-08-03T02:59:57;35.10;92.60
17740;DHT22;8990;33.226;-97.150;2022-08-03T03:02:30;35.00;92.60
17740;DHT22;8990;33.226;-97.150;2022-08-03T03:05:00;35.10;92.60
17740;DHT22;8990;33.226;-97.150;2022-08-03T03:07:31;35.00;92.60
17740;DHT22;8990;33.226;-97.150;2022-08-03T03:10:02;35.10;92.70
17740;DHT22;8990;33.226;-97.150;2022-08-03T03:12:32;35.00;92.70
17740;DHT22;8990;33.226;-97.150;2022-08-03T03:15:13;35.00;92.70
17740;DHT22;8990;33.226;-97.150;2022-08-03T03:17:45;34.90;92.80
17740;DHT22;8990;33.226;-97.150;2022-08-03T03:20:15;34.90;92.90
17740;DHT22;8990;33.226;-97.150;2022-08-03T03:22:47;34.80;93.00
17740;DHT22;8990;33.226;-97.150;2022-08-03T03:25:17;34.70;93.10
17740;DHT22;8990;33.226;-97.150;2022-08-03T03:27:48;34.60;93.00
17740;DHT22;8990;33.226;-97.150;2022-08-03T03:30:17;34.60;93.20
17740;DHT22;8990;33.226;-97.150;2022-08-03T03:32:48;34.60;93.20
17740;DHT22;8990;33.226;-97.150;2022-08-03T03:35:18;34.60;93.20
17740;DHT22;8990;33.226;-97.150;2022-08-03T03:37:47;34.60;93.20
17740;DHT22;8990;33.226;-97.150;2022-08-03T03:40:16;34.60;93.10
17740;DHT22;8990;33.226;-97.150;2022-08-03T03:42:46;34.60;93.10
17740;DHT22;8990;33.226;-97.150;2022-08-03T03:45:15;34.60;93.20
17740;DHT22;8990;33.226;-97.150;2022-08-03T03:47:52;34.60;93.20
17740;DHT22;8990;33.226;-97.150;2022-08-03T03:50:22;34.60;93.20
17740;DHT22;8990;33.226;-97.150;2022-08-03T03:52:51;34.60;93.30
17740;DHT22;8990;33.226;-97.150;2022-08-03T03:55:20;34.50;93.20
17740;DHT22;8990;33.226;-97.150;2022-08-03T03:57:50;34.40;93.70
17740;DHT22;8990;33.226;-97.150;2022-08-03T04:00:20;34.30;93.40
17740;DHT22;8990;33.226;-97.150;2022-08-03T04:02:51;34.30;93.50
17740;DHT22;8990;33.226;-97.150;2022-08-03T04:05:20;34.30;93.50
17740;DHT22;8990;33.226;-97.150;2022-08-03T04:08:08;34.20;93.50
17740;DHT22;8990;33.226;-97.150;2022-08-03T04:11:04;34.20;93.60
17740;DHT22;8990;33.226;-97.150;2022-08-03T04:13:39;34.10;93.60
17740;DHT22;8990;33.226;-97.150;2022-08-03T04:16:12;34.10;93.60
17740;DHT22;8990;33.226;-97.150;2022-08-03T04:18:45;34.10;93.70
17740;DHT22;8990;33.226;-97.150;2022-08-03T04:21:17;34.10;93.70
17740;DHT22;8990;33.226;-97.150;2022-08-03T04:23:48;34.00;93.80
17740;DHT22;8990;33.226;-97.150;2022-08-03T04:26:20;34.00;93.80
17740;DHT22;8990;33.226;-97.150;2022-08-03T04:28:50;34.00;93.80
17740;DHT22;8990;33.226;-97.150;2022-08-03T04:31:21;34.00;93.90
17740;DHT22;8990;33.226;-97.150;2022-08-03T04:33:54;33.90;94.20
17740;DHT22;8990;33.226;-97.150;2022-08-03T04:36:25;33.90;93.90
17740;DHT22;8990;33.226;-97.150;2022-08-03T04:38:59;33.90;93.90
17740;DHT22;8990;33.226;-97.150;2022-08-03T04:41:29;33.80;94.00
17740;DHT22;8990;33.226;-97.150;2022-08-03T04:44:00;33.80;94.00
17740;DHT22;8990;33.226;-97.150;2022-08-03T04:46:33;33.70;94.10
17740;DHT22;8990;33.226;-97.150;2022-08-03T04:49:05;33.60;94.20
17740;DHT22;8990;33.226;-97.150;2022-08-03T04:51:37;33.60;94.20
17740;DHT22;8990;33.226;-97.150;2022-08-03T04:54:06;33.60;94.30
17740;DHT22;8990;33.226;-97.150;2022-08-03T04:56:40;33.60;94.30
17740;DHT22;8990;33.226;-97.150;2022-08-03T04:59:10;33.60;94.40
17740;DHT22;8990;33.226;-97.150;2022-08-03T05:01:39;33.60;94.40
17740;DHT22;8990;33.226;-97.150;2022-08-03T05:04:11;33.60;94.30
17740;DHT22;8990;33.226;-97.150;2022-08-03T05:06:40;33.60;94.30
17740;DHT22;8990;33.226;-97.150;2022-08-03T05:09:10;33.50;94.50
17740;DHT22;8990;33.226;-97.150;2022-08-03T05:11:39;33.40;94.50
17740;DHT22;8990;33.226;-97.150;2022-08-03T05:14:08;33.40;94.70
17740;DHT22;8990;33.226;-97.150;2022-08-03T05:16:37;33.40;94.70
17740;DHT22;8990;33.226;-97.150;2022-08-03T05:19:06;33.20;94.80
17740;DHT22;8990;33.226;-97.150;2022-08-03T05:21:37;33.20;94.90
17740;DHT22;8990;33.226;-97.150;2022-08-03T05:24:07;33.20;94.90
17740;DHT22;8990;33.226;-97.150;2022-08-03T05:26:37;33.20;95.00
17740;DHT22;8990;33.226;-97.150;2022-08-03T05:29:06;33.20;95.10
17740;DHT22;8990;33.226;-97.150;2022-08-03T05:31:35;33.10;95.10
17740;DHT22;8990;33.226;-97.150;2022-08-03T05:34:05;33.20;95.20
17740;DHT22;8990;33.226;-97.150;2022-08-03T05:36:34;33.10;95.30
17740;DHT22;8990;33.226;-97.150;2022-08-03T05:39:05;33.10;95.30
17740;DHT22;8990;33.226;-97.150;2022-08-03T05:41:34;33.10;95.40
17740;DHT22;8990;33.226;-97.150;2022-08-03T05:44:04;33.00;95.50
17740;DHT22;8990;33.226;-97.150;2022-08-03T05:46:33;32.90;95.60
17740;DHT22;8990;33.226;-97.150;2022-08-03T05:49:02;32.80;95.60
17740;DHT22;8990;33.226;-97.150;2022-08-03T05:51:32;32.80;95.70
17740;DHT22;8990;33.226;-97.150;2022-08-03T05:54:01;32.80;95.80
17740;DHT22;8990;33.226;-97.150;2022-08-03T05:56:32;32.80;95.90
17740;DHT22;8990;33.226;-97.150;2022-08-03T05:59:02;32.70;95.90
17740;DHT22;8990;33.226;-97.150;2022-08-03T06:01:31;32.80;96.00
17740;DHT22;8990;33.226;-97.150;2022-08-03T06:04:01;32.80;96.20
17740;DHT22;8990;33.226;-97.150;2022-08-03T06:06:30;32.80;96.40
17740;DHT22;8990;33.226;-97.150;2022-08-03T06:08:59;32.80;96.00
17740;DHT22;8990;33.226;-97.150;2022-08-03T06:11:31;32.80;95.90
17740;DHT22;8990;33.226;-97.150;2022-08-03T06:14:00;32.80;96.00
17740;DHT22;8990;33.226;-97.150;2022-08-03T06:16:29;32.80;96.20
17740;DHT22;8990;33.226;-97.150;2022-08-03T06:18:59;32.70;96.20
17740;DHT22;8990;33.226;-97.150;2022-08-03T06:21:29;32.60;96.30
17740;DHT22;8990;33.226;-97.150;2022-08-03T06:23:58;32.60;96.40
17740;DHT22;8990;33.226;-97.150;2022-08-03T06:26:27;32.50;96.40
17740;DHT22;8990;33.226;-97.150;2022-08-03T06:28:59;32.40;96.40
17740;DHT22;8990;33.226;-97.150;2022-08-03T06:31:28;32.40;96.40
17740;DHT22;8990;33.226;-97.150;2022-08-03T06:33:57;32.40;96.60
17740;DHT22;8990;33.226;-97.150;2022-08-03T06:36:27;32.40;96.50
17740;DHT22;8990;33.226;-97.150;2022-08-03T06:38:57;32.40;96.50
17740;DHT22;8990;33.226;-97.150;2022-08-03T06:41:27;32.40;96.50
17740;DHT22;8990;33.226;-97.150;2022-08-03T06:43:58;32.40;96.40
17740;DHT22;8990;33.226;-97.150;2022-08-03T06:46:27;32.30;96.40
17740;DHT22;8990;33.226;-97.150;2022-08-03T06:48:56;32.40;96.50
17740;DHT22;8990;33.226;-97.150;2022-08-03T06:51:26;32.30;96.60
17740;DHT22;8990;33.226;-97.150;2022-08-03T06:53:55;32.20;96.60
17740;DHT22;8990;33.226;-97.150;2022-08-03T06:56:24;32.20;96.70
17740;DHT22;8990;33.226;-97.150;2022-08-03T06:58:54;32.20;96.70
17740;DHT22;8990;33.226;-97.150;2022-08-03T07:01:25;32.20;96.90
17740;DHT22;8990;33.226;-97.150;2022-08-03T07:03:54;32.20;97.00
17740;DHT22;8990;33.226;-97.150;2022-08-03T07:06:24;32.10;97.10
17740;DHT22;8990;33.226;-97.150;2022-08-03T07:08:53;32.10;97.10
17740;DHT22;8990;33.226;-97.150;2022-08-03T07:11:23;32.10;97.20
17740;DHT22;8990;33.226;-97.150;2022-08-03T07:13:54;32.10;97.20
17740;DHT22;8990;33.226;-97.150;2022-08-03T07:16:25;32.10;97.40
17740;DHT22;8990;33.226;-97.150;2022-08-03T07:18:54;32.00;97.40
17740;DHT22;8990;33.226;-97.150;2022-08-03T07:21:23;32.00;97.50
17740;DHT22;8990;33.226;-97.150;2022-08-03T07:23:52;31.90;97.60
17740;DHT22;8990;33.226;-97.150;2022-08-03T07:26:22;31.90;97.60
17740;DHT22;8990;33.226;-97.150;2022-08-03T07:28:51;31.90;97.70
17740;DHT22;8990;33.226;-97.150;2022-08-03T07:31:20;31.90;97.80
17740;DHT22;8990;33.226;-97.150;2022-08-03T07:33:54;31.80;97.80
17740;DHT22;8990;33.226;-97.150;2022-08-03T07:36:23;31.70;97.90
17740;DHT22;8990;33.226;-97.150;2022-08-03T07:38:53;31.70;98.00
17740;DHT22;8990;33.226;-97.150;2022-08-03T07:41:24;31.60;98.10
17740;DHT22;8990;33.226;-97.150;2022-08-03T07:43:53;31.60;98.30
17740;DHT22;8990;33.226;-97.150;2022-08-03T07:46:23;31.60;98.40
17740;DHT22;8990;33.226;-97.150;2022-08-03T07:48:54;31.60;98.40
17740;DHT22;8990;33.226;-97.150;2022-08-03T07:51:22;31.60;98.50
17740;DHT22;8990;33.226;-97.150;2022-08-03T07:53:51;31.50;98.60
17740;DHT22;8990;33.226;-97.150;2022-08-03T07:56:24;31.50;98.70
17740;DHT22;8990;33.226;-97.150;2022-08-03T07:58:54;31.40;99.20
17740;DHT22;8990;33.226;-97.150;2022-08-03T08:01:23;31.30;99.00
17740;DHT22;8990;33.226;-97.150;2022-08-03T08:03:55;31.30;99.20
17740;DHT22;8990;33.226;-97.150;2022-08-03T08:06:24;31.30;99.30
17740;DHT22;8990;33.226;-97.150;2022-08-03T08:08:53;31.30;99.40
17740;DHT22;8990;33.226;-97.150;2022-08-03T08:11:25;31.20;99.50
17740;DHT22;8990;33.226;-97.150;2022-08-03T08:13:54;31.10;99.60
17740;DHT22;8990;33.226;-97.150;2022-08-03T08:16:23;31.10;99.80
17740;DHT22;8990;33.226;-97.150;2022-08-03T08:18:54;31.10;99.90
17740;DHT22;8990;33.226;-97.150;2022-08-03T08:21:24;31.10;99.90
17740;DHT22;8990;33.226;-97.150;2022-08-03T08:23:54;31.10;99.90
17740;DHT22;8990;33.226;-97.150;2022-08-03T08:26:23;31.10;99.90
17740;DHT22;8990;33.226;-97.150;2022-08-03T08:28:54;31.00;99.90
17740;DHT22;8990;33.226;-97.150;2022-08-03T08:31:22;31.00;99.90
17740;DHT22;8990;33.226;-97.150;2022-08-03T08:33:52;31.00;99.90
17740;DHT22;8990;33.226;-97.150;2022-08-03T08:36:22;31.00;99.90
17740;DHT22;8990;33.226;-97.150;2022-08-03T08:38:52;31.00;99.90
17740;DHT22;8990;33.226;-97.150;2022-08-03T08:41:21;30.90;99.90
17740;DHT22;8990;33.226;-97.150;2022-08-03T08:43:50;30.80;99.90
17740;DHT22;8990;33.226;-97.150;2022-08-03T08:46:20;30.90;99.90
17740;DHT22;8990;33.226;-97.150;2022-08-03T08:48:50;30.80;99.90
17740;DHT22;8990;33.226;-97.150;2022-08-03T08:51:20;30.80;99.90
17740;DHT22;8990;33.226;-97.150;2022-08-03T08:53:52;30.80;99.90
17740;DHT22;8990;33.226;-97.150;2022-08-03T08:56:24;30.70;99.90
17740;DHT22;8990;33.226;-97.150;2022-08-03T08:58:58;30.70;99.90
17740;DHT22;8990;33.226;-97.150;2022-08-03T09:01:27;30.70;99.90
17740;DHT22;8990;33.226;-97.150;2022-08-03T09:03:56;30.70;99.90
17740;DHT22;8990;33.226;-97.150;2022-08-03T09:06:25;30.60;99.90
17740;DHT22;8990;33.226;-97.150;2022-08-03T09:08:56;30.60;99.90
17740;DHT22;8990;33.226;-97.150;2022-08-03T09:11:25;30.60;99.90
17740;DHT22;8990;33.226;-97.150;2022-08-03T09:13:55;30.60;99.90
17740;DHT22;8990;33.226;-97.150;2022-08-03T09:16:24;30.50;99.90
17740;DHT22;8990;33.226;-97.150;2022-08-03T09:18:54;30.60;99.90
17740;DHT22;8990;33.226;-97.150;2022-08-03T09:21:24;30.50;99.90
17740;DHT22;8990;33.226;-97.150;2022-08-03T09:23:58;30.50;99.90
17740;DHT22;8990;33.226;-97.150;2022-08-03T09:26:32;30.40;99.90
17740;DHT22;8990;33.226;-97.150;2022-08-03T09:29:04;30.30;99.90
17740;DHT22;8990;33.226;-97.150;2022-08-03T09:31:35;30.30;99.90
17740;DHT22;8990;33.226;-97.150;2022-08-03T09:34:06;30.30;99.90
17740;DHT22;8990;33.226;-97.150;2022-08-03T09:36:37;30.30;99.90
17740;DHT22;8990;33.226;-97.150;2022-08-03T09:39:09;30.20;99.90
17740;DHT22;8990;33.226;-97.150;2022-08-03T09:41:39;30.20;99.90
17740;DHT22;8990;33.226;-97.150;2022-08-03T09:44:09;30.10;99.90
17740;DHT22;8990;33.226;-97.150;2022-08-03T09:46:48;30.10;99.90
17740;DHT22;8990;33.226;-97.150;2022-08-03T09:49:18;30.10;99.90
17740;DHT22;8990;33.226;-97.150;2022-08-03T09:51:47;30.10;99.90
17740;DHT22;8990;33.226;-97.150;2022-08-03T09:54:27;30.00;99.90
17740;DHT22;8990;33.226;-97.150;2022-08-03T09:56:57;30.00;99.90
17740;DHT22;8990;33.226;-97.150;2022-08-03T09:59:27;30.00;99.90
17740;DHT22;8990;33.226;-97.150;2022-08-03T10:01:57;30.00;99.90
17740;DHT22;8990;33.226;-97.150;2022-08-03T10:04:27;30.00;99.90
17740;DHT22;8990;33.226;-97.150;2022-08-03T10:07:03;29.90;99.90
17740;DHT22;8990;33.226;-97.150;2022-08-03T10:09:34;30.00;99.90
17740;DHT22;8990;33.226;-97.150;2022-08-03T10:12:08;30.00;99.90
17740;DHT22;8990;33.226;-97.150;2022-08-03T10:14:39;29.90;99.90
17740;DHT22;8990;33.226;-97.150;2022-08-03T10:17:11;29.80;99.90
17740;DHT22;8990;33.226;-97.150;2022-08-03T10:19:40;29.90;99.90
17740;DHT22;8990;33.226;-97.150;2022-08-03T10:22:12;29.90;99.90
17740;DHT22;8990;33.226;-97.150;2022-08-03T10:24:49;29.90;99.90
17740;DHT22;8990;33.226;-97.150;2022-08-03T10:27:22;29.80;99.90
17740;DHT22;8990;33.226;-97.150;2022-08-03T10:29:54;29.70;99.90
17740;DHT22;8990;33.226;-97.150;2022-08-03T10:32:27;29.70;99.90
17740;DHT22;8990;33.226;-97.150;2022-08-03T10:35:03;29.70;99.90
17740;DHT22;8990;33.226;-97.150;2022-08-03T10:37:39;29.70;99.90
17740;DHT22;8990;33.226;-97.150;2022-08-03T10:40:13;29.60;99.90
17740;DHT22;8990;33.226;-97.150;2022-08-03T10:42:45;29.50;99.90
17740;DHT22;8990;33.226;-97.150;2022-08-03T10:45:18;29.40;99.90
17740;DHT22;8990;33.226;-97.150;2022-08-03T10:47:49;29.40;99.90
17740;DHT22;8990;33.226;-97.150;2022-08-03T10:50:19;29.40;99.90
17740;DHT22;8990;33.226;-97.150;2022-08-03T10:52:55;29.40;99.90
17740;DHT22;8990;33.226;-97.150;2022-08-03T10:55:34;29.40;99.90
17740;DHT22;8990;33.226;-97.150;2022-08-03T10:58:47;29.30;99.90
17740;DHT22;8990;33.226;-97.150;2022-08-03T11:01:19;29.20;99.90
17740;DHT22;8990;33.226;-97.150;2022-08-03T11:04:15;29.30;99.90
17740;DHT22;8990;33.226;-97.150;2022-08-03T11:06:46;29.20;99.90
17740;DHT22;8990;33.226;-97.150;2022-08-03T11:09:18;29.20;99.90
17740;DHT22;8990;33.226;-97.150;2022-08-03T11:11:50;29.10;99.90
17740;DHT22;8990;33.226;-97.150;2022-08-03T11:14:21;29.10;99.90
17740;DHT22;8990;33.226;-97.150;2022-08-03T11:17:08;29.10;99.90
17740;DHT22;8990;33.226;-97.150;2022-08-03T11:19:43;29.00;99.90
17740;DHT22;8990;33.226;-97.150;2022-08-03T11:22:13;29.00;99.90
17740;DHT22;8990;33.226;-97.150;2022-08-03T11:24:58;29.00;99.90
17740;DHT22;8990;33.226;-97.150;2022-08-03T11:27:31;28.90;99.90
17740;DHT22;8990;33.226;-97.150;2022-08-03T11:30:04;28.90;99.90
17740;DHT22;8990;33.226;-97.150;2022-08-03T11:32:57;28.90;99.90
17740;DHT22;8990;33.226;-97.150;2022-08-03T11:35:28;28.90;99.90
17740;DHT22;8990;33.226;-97.150;2022-08-03T11:38:18;28.90;99.90
17740;DHT22;8990;33.226;-97.150;2022-08-03T11:40:51;28.80;99.90
17740;DHT22;8990;33.226;-97.150;2022-08-03T11:43:44;28.90;99.90
17740;DHT22;8990;33.226;-97.150;2022-08-03T11:46:14;28.80;99.90
17740;DHT22;8990;33.226;-97.150;2022-08-03T11:48:48;28.90;99.90
17740;DHT22;8990;33.226;-97.150;2022-08-03T11:51:20;28.80;99.90
17740;DHT22;8990;33.226;-97.150;2022-08-03T11:53:54;28.70;99.90
17740;DHT22;8990;33.226;-97.150;2022-08-03T11:56:24;28.80;99.90
17740;DHT22;8990;33.226;-97.150;2022-08-03T11:58:56;28.70;99.90
17740;DHT22;8990;33.226;-97.150;2022-08-03T12:01:27;28.70;99.90
17740;DHT22;8990;33.226;-97.150;2022-08-03T12:04:02;28.70;99.90
17740;DHT22;8990;33.226;-97.150;2022-08-03T12:06:32;28.70;99.90
17740;DHT22;8990;33.226;-97.150;2022-08-03T12:09:20;28.70;99.90
17740;DHT22;8990;33.226;-97.150;2022-08-03T12:11:51;28.80;99.90
17740;DHT22;8990;33.226;-97.150;2022-08-03T12:14:22;28.70;99.90
17740;DHT22;8990;33.226;-97.150;2022-08-03T12:16:51;28.70;99.90
17740;DHT22;8990;33.226;-97.150;2022-08-03T12:19:20;28.70;99.90
17740;DHT22;8990;33.226;-97.150;2022-08-03T12:21:49;28.70;99.90
17740;DHT22;8990;33.226;-97.150;2022-08-03T12:24:20;28.80;99.90
17740;DHT22;8990;33.226;-97.150;2022-08-03T12:26:49;28.80;99.90
17740;DHT22;8990;33.226;-97.150;2022-08-03T12:29:21;28.80;99.90
17740;DHT22;8990;33.226;-97.150;2022-08-03T12:31:52;28.90;99.90
17740;DHT22;8990;33.226;-97.150;2022-08-03T12:34:21;28.80;99.90
17740;DHT22;8990;33.226;-97.150;2022-08-03T12:36:52;28.80;99.90
17740;DHT22;8990;33.226;-97.150;2022-08-03T12:39:23;28.90;99.90
17740;DHT22;8990;33.226;-97.150;2022-08-03T12:41:54;28.90;99.90
17740;DHT22;8990;33.226;-97.150;2022-08-03T12:44:30;29.00;99.90
17740;DHT22;8990;33.226;-97.150;2022-08-03T12:47:01;29.10;99.90
17740;DHT22;8990;33.226;-97.150;2022-08-03T12:49:44;29.20;99.90
17740;DHT22;8990;33.226;-97.150;2022-08-03T12:52:15;29.20;99.90
17740;DHT22;8990;33.226;-97.150;2022-08-03T12:54:54;29.30;99.90
17740;DHT22;8990;33.226;-97.150;2022-08-03T12:57:24;29.40;99.90
17740;DHT22;8990;33.226;-97.150;2022-08-03T12:59:54;29.50;99.90
17740;DHT22;8990;33.226;-97.150;2022-08-03T13:02:38;29.50;99.90
17740;DHT22;8990;33.226;-97.150;2022-08-03T13:05:10;29.60;99.90
17740;DHT22;8990;33.226;-97.150;2022-08-03T13:07:40;29.70;99.90
17740;DHT22;8990;33.226;-97.150;2022-08-03T13:10:11;29.70;99.90
17740;DHT22;8990;33.226;-97.150;2022-08-03T13:12:48;29.80;99.90
17740;DHT22;8990;33.226;-97.150;2022-08-03T13:15:19;29.80;99.90
17740;DHT22;8990;33.226;-97.150;2022-08-03T13:17:49;29.90;99.90
17740;DHT22;8990;33.226;-97.150;2022-08-03T13:20:18;29.80;99.90
17740;DHT22;8990;33.226;-97.150;2022-08-03T13:22:48;29.90;99.90
17740;DHT22;8990;33.226;-97.150;2022-08-03T13:25:17;29.90;99.90
17740;DHT22;8990;33.226;-97.150;2022-08-03T13:27:47;29.90;99.90
17740;DHT22;8990;33.226;-97.150;2022-08-03T13:30:18;30.10;99.90
17740;DHT22;8990;33.226;-97.150;2022-08-03T13:32:47;30.30;99.90
17740;DHT22;8990;33.226;-97.150;2022-08-03T13:35:16;30.40;99.90
17740;DHT22;8990;33.226;-97.150;2022-08-03T13:37:46;30.50;99.90
17740;DHT22;8990;33.226;-97.150;2022-08-03T13:40:15;30.50;99.90
17740;DHT22;8990;33.226;-97.150;2022-08-03T13:42:44;30.50;99.90
17740;DHT22;8990;33.226;-97.150;2022-08-03T13:45:13;30.60;99.90
17740;DHT22;8990;33.226;-97.150;2022-08-03T13:47:45;30.70;99.90
17740;DHT22;8990;33.226;-97.150;2022-08-03T13:50:14;30.80;99.90
17740;DHT22;8990;33.226;-97.150;2022-08-03T13:52:43;30.80;99.90
17740;DHT22;8990;33.226;-97.150;2022-08-03T13:55:13;30.70;99.90
17740;DHT22;8990;33.226;-97.150;2022-08-03T13:57:42;30.80;99.90
17740;DHT22;8990;33.226;-97.150;2022-08-03T14:00:13;31.00;99.90
17740;DHT22;8990;33.226;-97.150;2022-08-03T14:02:44;31.20;99.90
17740;DHT22;8990;33.226;-97.150;2022-08-03T14:05:13;31.40;99.90
17740;DHT22;8990;33.226;-97.150;2022-08-03T14:07:43;31.30;99.90
17740;DHT22;8990;33.226;-97.150;2022-08-03T14:10:13;31.40;99.90
17740;DHT22;8990;33.226;-97.150;2022-08-03T14:12:43;31.50;99.90
17740;DHT22;8990;33.226;-97.150;2022-08-03T14:15:12;31.50;99.90
17740;DHT22;8990;33.226;-97.150;2022-08-03T14:17:44;31.50;99.90
17740;DHT22;8990;33.226;-97.150;2022-08-03T14:20:13;31.60;99.90
17740;DHT22;8990;33.226;-97.150;2022-08-03T14:22:43;31.90;99.90
17740;DHT22;8990;33.226;-97.150;2022-08-03T14:25:12;32.00;99.90
17740;DHT22;8990;33.226;-97.150;2022-08-03T14:27:41;31.90;99.90
17740;DHT22;8990;33.226;-97.150;2022-08-03T14:30:11;32.00;99.90
17740;DHT22;8990;33.226;-97.150;2022-08-03T14:32:41;32.10;99.90
17740;DHT22;8990;33.226;-97.150;2022-08-03T14:35:12;32.20;99.90
17740;DHT22;8990;33.226;-97.150;2022-08-03T14:37:41;32.30;99.90
17740;DHT22;8990;33.226;-97.150;2022-08-03T14:40:10;32.30;99.90
17740;DHT22;8990;33.226;-97.150;2022-08-03T14:42:39;32.50;99.90
17740;DHT22;8990;33.226;-97.150;2022-08-03T14:45:09;32.50;99.90
17740;DHT22;8990;33.226;-97.150;2022-08-03T14:47:39;32.50;99.90
17740;DHT22;8990;33.226;-97.150;2022-08-03T14:50:11;32.50;99.90
17740;DHT22;8990;33.226;-97.150;2022-08-03T14:52:40;32.70;99.90
17740;DHT22;8990;33.226;-97.150;2022-08-03T14:55:09;32.80;99.90
17740;DHT22;8990;33.226;-97.150;2022-08-03T14:57:39;32.70;99.90
17740;DHT22;8990;33.226;-97.150;2022-08-03T15:00:09;32.70;99.90
17740;DHT22;8990;33.226;-97.150;2022-08-03T15:02:39;32.80;99.90
17740;DHT22;8990;33.226;-97.150;2022-08-03T15:05:08;32.80;99.90
17740;DHT22;8990;33.226;-97.150;2022-08-03T15:07:40;33.00;99.90
17740;DHT22;8990;33.226;-97.150;2022-08-03T15:10:10;33.20;99.90
17740;DHT22;8990;33.226;-97.150;2022-08-03T15:12:40;33.30;99.90
17740;DHT22;8990;33.226;-97.150;2022-08-03T15:15:10;33.20;99.90
17740;DHT22;8990;33.226;-97.150;2022-08-03T15:17:40;33.40;99.90
17740;DHT22;8990;33.226;-97.150;2022-08-03T15:20:10;33.50;99.90
17740;DHT22;8990;33.226;-97.150;2022-08-03T15:22:41;33.60;99.90
17740;DHT22;8990;33.226;-97.150;2022-08-03T15:25:10;33.50;99.90
17740;DHT22;8990;33.226;-97.150;2022-08-03T15:27:40;33.50;99.90
17740;DHT22;8990;33.226;-97.150;2022-08-03T15:30:10;33.70;99.90
17740;DHT22;8990;33.226;-97.150;2022-08-03T15:32:40;33.80;99.90
17740;DHT22;8990;33.226;-97.150;2022-08-03T15:35:09;33.80;99.90
17740;DHT22;8990;33.226;-97.150;2022-08-03T15:37:40;34.00;99.90
17740;DHT22;8990;33.226;-97.150;2022-08-03T15:40:11;33.90;99.90
17740;DHT22;8990;33.226;-97.150;2022-08-03T15:42:41;34.00;99.90
17740;DHT22;8990;33.226;-97.150;2022-08-03T15:45:10;34.00;99.90